Time;durP1;ratioP1;P1;durP2;ratioP2;P2;SDS_P1;SDS_P2;PMS_P1;PMS_P2;Temp;Humidity;BMP_temperature;BMP_pressure;BME280_temperature;BME280_humidity;BME280_pressure;Samples;Min_cycle;Max_cycle;Signal;HPM_P1;HPM_P2
2023/07/27 00:00:47;;;;;;;5.40;4.00;;;16.30;99.90;;;;;;5059015;28;20192;-71
2023/07/27 00:03:13;;;;;;;8.73;4.10;;;16.30;99.90;;;;;;5061631;28;20197;-71
2023/07/27 00:05:38;;;;;;;5.90;3.60;;;16.40;99.90;;;;;;5062755;28;20177;-72
2023/07/27 00:08:04;;;;;;;5.43;3.63;;;16.30;99.90;;;;;;5064347;28;20262;-71
2023/07/27 00:10:30;;;;;;;7.37;4.10;;;16.30;99.90;;;;;;5061487;28;20239;-71
2023/07/27 00:12:56;;;;;;;3.97;3.60;;;16.30;99.90;;;;;;5066858;28;20184;-71
2023/07/27 00:15:22;;;;;;;4.03;3.63;;;16.30;99.90;;;;;;5059558;28;20181;-72
2023/07/27 00:17:47;;;;;;;3.50;3.10;;;16.30;99.90;;;;;;5061734;28;20432;-71
2023/07/27 00:20:13;;;;;;;4.40;4.00;;;16.40;99.90;;;;;;5057773;28;20489;-71
2023/07/27 00:22:39;;;;;;;4.13;3.73;;;16.40;99.90;;;;;;5060657;28;20202;-71
2023/07/27 00:25:05;;;;;;;4.07;3.67;;;16.40;99.90;;;;;;5062059;28;20211;-71
2023/07/27 00:27:31;;;;;;;6.60;3.97;;;16.40;99.90;;;;;;5059685;28;20559;-72
2023/07/27 00:29:56;;;;;;;4.27;3.87;;;16.40;99.90;;;;;;5063787;28;20680;-71
2023/07/27 00:32:22;;;;;;;4.33;3.93;;;16.30;99.90;;;;;;5048446;28;20654;-71
2023/07/27 00:34:50;;;;;;;4.30;3.67;;;16.30;99.90;;;;;;5046478;28;20174;-72
2023/07/27 00:37:16;;;;;;;3.50;3.20;;;16.30;99.90;;;;;;5047180;28;20794;-72
2023/07/27 00:39:42;;;;;;;3.90;3.60;;;16.30;99.90;;;;;;5047365;28;20440;-72
2023/07/27 00:42:07;;;;;;;6.30;3.80;;;16.20;99.90;;;;;;5047063;28;20658;-72
2023/07/27 00:44:33;;;;;;;4.00;3.30;;;16.20;99.90;;;;;;5046680;28;20260;-71
2023/07/27 00:46:59;;;;;;;4.07;3.37;;;16.30;99.90;;;;;;5046821;28;20197;-72
2023/07/27 00:49:25;;;;;;;3.60;3.30;;;16.30;99.90;;;;;;5047297;28;20294;-71
2023/07/27 00:51:51;;;;;;;4.40;4.00;;;16.30;99.90;;;;;;5047166;28;20833;-71
2023/07/27 00:54:17;;;;;;;5.50;3.50;;;16.30;99.90;;;;;;5046440;28;20253;-72
2023/07/27 00:56:43;;;;;;;3.60;3.30;;;16.20;99.90;;;;;;5060788;28;20451;-71
2023/07/27 00:59:09;;;;;;;5.07;2.90;;;16.20;99.90;;;;;;5068555;28;20417;-71
2023/07/27 01:01:35;;;;;;;4.40;4.00;;;16.20;99.90;;;;;;5070900;28;20466;-71
2023/07/27 01:04:01;;;;;;;5.00;3.50;;;16.20;99.90;;;;;;5070077;28;20196;-72
2023/07/27 01:06:27;;;;;;;6.13;3.83;;;16.20;99.90;;;;;;5070177;28;20452;-71
2023/07/27 01:08:53;;;;;;;4.73;3.87;;;16.30;99.90;;;;;;5070681;28;20267;-72
2023/07/27 01:11:36;;;;;;;6.13;3.60;;;16.20;99.90;;;;;;5070493;28;20174;-72
2023/07/27 01:14:34;;;;;;;3.97;3.27;;;16.20;99.90;;;;;;5069987;28;20414;-71
2023/07/27 01:17:15;;;;;;;4.67;3.30;;;16.20;99.90;;;;;;5069831;28;20439;-71
2023/07/27 01:20:22;;;;;;;3.33;3.03;;;16.20;99.90;;;;;;5050712;28;20546;-71
2023/07/27 01:22:56;;;;;;;5.80;3.67;;;16.30;99.90;;;;;;5065180;28;20442;-71
2023/07/27 01:25:47;;;;;;;4.63;3.53;;;16.30;99.90;;;;;;5069694;28;20779;-71
2023/07/27 01:28:18;;;;;;;3.90;3.33;;;16.40;99.90;;;;;;5070552;28;21187;-71
2023/07/27 01:30:58;;;;;;;5.97;3.50;;;16.40;99.90;;;;;;5087548;28;20454;-71
2023/07/27 01:33:32;;;;;;;5.90;3.20;;;16.40;99.90;;;;;;5069620;28;20983;-71
2023/07/27 01:36:10;;;;;;;4.57;3.10;;;16.40;99.90;;;;;;5069532;28;20494;-71
2023/07/27 01:38:40;;;;;;;5.23;3.63;;;16.50;99.90;;;;;;5070283;28;21055;-71
2023/07/27 01:41:08;;;;;;;3.23;2.83;;;16.50;99.90;;;;;;5069933;28;20728;-71
2023/07/27 01:43:35;;;;;;;4.07;3.63;;;16.50;99.90;;;;;;5070121;28;21533;-71
2023/07/27 01:46:03;;;;;;;4.40;2.93;;;16.50;99.90;;;;;;5066149;28;20453;-71
2023/07/27 01:48:30;;;;;;;5.73;3.50;;;16.50;99.90;;;;;;5069596;28;20458;-71
2023/07/27 01:50:57;;;;;;;5.90;3.20;;;16.50;99.90;;;;;;5069902;28;20486;-71
2023/07/27 01:53:25;;;;;;;5.23;3.07;;;16.50;99.90;;;;;;5069767;28;20461;-71
2023/07/27 01:55:52;;;;;;;3.13;2.80;;;16.60;99.90;;;;;;5068955;28;20403;-71
2023/07/27 01:58:19;;;;;;;3.67;3.10;;;16.60;99.90;;;;;;5068650;28;20522;-71
2023/07/27 02:00:46;;;;;;;4.10;2.93;;;16.60;99.90;;;;;;5069971;28;20415;-71
2023/07/27 02:03:12;;;;;;;4.20;3.17;;;16.60;99.90;;;;;;5069425;28;20935;-71
2023/07/27 02:05:38;;;;;;;4.30;3.00;;;16.60;99.90;;;;;;5067646;28;20435;-71
2023/07/27 02:08:03;;;;;;;8.03;2.90;;;16.60;99.90;;;;;;5068504;28;21835;-71
2023/07/27 02:10:31;;;;;;;3.87;3.23;;;16.60;99.90;;;;;;5068668;28;20193;-71
2023/07/27 02:13:11;;;;;;;3.93;3.13;;;16.60;99.90;;;;;;5067846;28;20184;-71
2023/07/27 02:15:48;;;;;;;3.33;2.83;;;16.70;99.90;;;;;;5047420;28;20688;-71
2023/07/27 02:18:21;;;;;;;3.70;3.40;;;16.70;99.90;;;;;;5053436;28;20447;-71
2023/07/27 02:20:48;;;;;;;4.67;3.10;;;16.70;99.90;;;;;;5068737;28;20415;-71
2023/07/27 02:23:15;;;;;;;3.70;3.00;;;16.70;99.90;;;;;;5069261;28;20507;-71
2023/07/27 02:25:41;;;;;;;3.83;2.90;;;16.70;99.90;;;;;;5068422;28;20411;-72
2023/07/27 02:28:10;;;;;;;3.23;2.93;;;16.80;99.90;;;;;;5068713;28;20432;-71
2023/07/27 02:30:36;;;;;;;4.73;2.70;;;16.80;99.90;;;;;;5062077;28;20454;-71
2023/07/27 02:33:02;;;;;;;5.00;2.80;;;16.70;99.90;;;;;;5062398;28;20785;-71
2023/07/27 02:35:28;;;;;;;4.00;3.60;;;16.70;99.90;;;;;;5068449;28;20683;-71
2023/07/27 02:37:54;;;;;;;2.93;2.60;;;16.70;99.90;;;;;;5062350;28;20518;-71
2023/07/27 02:40:20;;;;;;;12.23;3.83;;;16.70;99.90;;;;;;5067639;28;20208;-71
2023/07/27 02:42:45;;;;;;;4.70;3.60;;;16.70;99.90;;;;;;5069203;28;20223;-71
2023/07/27 02:45:11;;;;;;;4.20;3.40;;;16.70;99.90;;;;;;5068533;28;20493;-71
2023/07/27 02:47:37;;;;;;;4.30;2.93;;;16.70;99.90;;;;;;5065879;28;20207;-71
2023/07/27 02:50:03;;;;;;;5.20;3.33;;;16.60;99.90;;;;;;5068485;28;20455;-71
2023/07/27 02:52:28;;;;;;;6.07;3.40;;;16.60;99.90;;;;;;5064645;28;20760;-71
2023/07/27 02:54:54;;;;;;;5.13;3.00;;;16.50;99.90;;;;;;5059614;28;20455;-71
2023/07/27 02:57:20;;;;;;;3.63;3.20;;;16.50;99.90;;;;;;5066826;28;20197;-71
2023/07/27 02:59:45;;;;;;;4.13;3.40;;;16.40;99.90;;;;;;5066026;28;20272;-71
2023/07/27 03:02:11;;;;;;;3.30;3.00;;;16.40;99.90;;;;;;5068219;28;20203;-71
2023/07/27 03:04:37;;;;;;;3.37;3.00;;;16.40;99.90;;;;;;5067256;28;20200;-71
2023/07/27 03:07:03;;;;;;;3.27;2.97;;;16.40;99.90;;;;;;5068224;28;20200;-71
2023/07/27 03:09:29;;;;;;;3.53;3.20;;;16.40;99.90;;;;;;5066535;28;20200;-71
2023/07/27 03:11:55;;;;;;;4.73;3.87;;;16.30;99.90;;;;;;5067298;28;20188;-71
2023/07/27 03:14:20;;;;;;;3.80;3.50;;;16.30;99.90;;;;;;5067871;28;20403;-71
2023/07/27 03:16:46;;;;;;;4.87;3.37;;;16.30;99.90;;;;;;5068242;28;20339;-71
2023/07/27 03:19:12;;;;;;;3.47;3.17;;;16.20;99.90;;;;;;5068330;28;20204;-71
2023/07/27 03:21:37;;;;;;;3.37;2.90;;;16.20;99.90;;;;;;5067540;28;20181;-71
2023/07/27 03:24:03;;;;;;;4.27;3.87;;;16.20;99.90;;;;;;5067971;28;20185;-71
2023/07/27 03:26:29;;;;;;;4.10;3.80;;;16.10;99.90;;;;;;5067857;28;20572;-71
2023/07/27 03:28:55;;;;;;;3.97;3.57;;;16.10;99.90;;;;;;5070377;28;20177;-71
2023/07/27 03:31:27;;;;;;;5.53;3.90;;;16.10;99.90;;;;;;5088411;28;20178;-71
2023/07/27 03:33:53;;;;;;;4.33;3.90;;;16.00;99.90;;;;;;5088016;28;20255;-71
2023/07/27 03:36:20;;;;;;;8.27;4.50;;;16.00;99.90;;;;;;5087972;28;20494;-71
2023/07/27 03:38:46;;;;;;;3.93;3.60;;;16.00;99.90;;;;;;5088106;28;20181;-71
2023/07/27 03:41:13;;;;;;;4.50;3.50;;;16.00;99.90;;;;;;5088292;28;20410;-72
2023/07/27 03:43:39;;;;;;;4.30;3.90;;;15.90;99.90;;;;;;5087830;28;20399;-71
2023/07/27 03:46:04;;;;;;;4.30;3.63;;;15.90;99.90;;;;;;5087916;28;20438;-71
2023/07/27 03:48:31;;;;;;;4.23;3.83;;;15.80;99.90;;;;;;5087883;28;20200;-71
2023/07/27 03:51:01;;;;;;;7.30;4.50;;;15.80;99.90;;;;;;5088070;28;20219;-71
2023/07/27 03:53:27;;;;;;;4.00;3.60;;;15.80;99.90;;;;;;5088038;28;20406;-72
2023/07/27 03:55:53;;;;;;;4.30;3.90;;;15.90;99.90;;;;;;5087763;28;20414;-72
2023/07/27 03:58:19;;;;;;;3.97;3.57;;;15.80;99.90;;;;;;5086931;28;20433;-72
2023/07/27 04:00:45;;;;;;;4.30;3.90;;;15.80;99.90;;;;;;5087657;28;20219;-71
2023/07/27 04:03:10;;;;;;;3.90;3.50;;;15.80;99.90;;;;;;5087952;28;20489;-72
2023/07/27 04:05:36;;;;;;;4.40;4.00;;;15.80;99.90;;;;;;5087322;28;20176;-72
2023/07/27 04:08:02;;;;;;;4.50;3.57;;;15.80;99.90;;;;;;5087918;28;20299;-72
2023/07/27 04:10:29;;;;;;;4.30;3.90;;;15.80;99.90;;;;;;5087822;28;20200;-72
2023/07/27 04:12:56;;;;;;;4.17;3.40;;;15.70;99.90;;;;;;5071062;28;20415;-72
2023/07/27 04:15:21;;;;;;;6.13;4.53;;;15.70;99.90;;;;;;5067006;28;20443;-72
2023/07/27 04:17:47;;;;;;;4.83;4.37;;;15.70;99.90;;;;;;5066276;28;20466;-72
2023/07/27 04:20:13;;;;;;;4.57;3.80;;;15.70;99.90;;;;;;5067677;28;20741;-72
2023/07/27 04:22:38;;;;;;;4.97;4.10;;;15.70;99.90;;;;;;5067505;28;20672;-72
2023/07/27 04:25:04;;;;;;;4.50;3.90;;;15.60;99.90;;;;;;5066863;28;20634;-72
2023/07/27 04:27:30;;;;;;;5.80;4.23;;;15.60;99.90;;;;;;5067544;28;20197;-72
2023/07/27 04:29:56;;;;;;;4.23;3.83;;;15.50;99.90;;;;;;5078141;28;20454;-72
2023/07/27 04:32:21;;;;;;;4.43;3.73;;;15.50;99.90;;;;;;5089159;28;20168;-72
2023/07/27 04:34:47;;;;;;;8.90;4.77;;;15.50;99.90;;;;;;5091176;28;20164;-72
2023/07/27 04:37:13;;;;;;;4.73;4.10;;;15.60;99.90;;;;;;5091473;28;20192;-72
2023/07/27 04:39:38;;;;;;;5.10;4.17;;;15.60;99.90;;;;;;5091851;28;20188;-72
2023/07/27 04:42:04;;;;;;;5.93;4.73;;;15.50;99.90;;;;;;5091659;28;20170;-72
2023/07/27 04:44:30;;;;;;;4.53;3.97;;;15.50;99.90;;;;;;5091109;28;20187;-72
2023/07/27 04:46:56;;;;;;;5.60;4.47;;;15.50;99.90;;;;;;5091332;28;20482;-72
2023/07/27 04:49:22;;;;;;;4.67;4.23;;;15.50;99.90;;;;;;5091576;28;20453;-72
2023/07/27 04:51:47;;;;;;;5.27;4.40;;;15.50;99.90;;;;;;5091375;28;20271;-72
2023/07/27 04:54:13;;;;;;;5.30;4.23;;;15.50;99.90;;;;;;5091103;28;20318;-72
2023/07/27 04:56:39;;;;;;;6.00;3.93;;;15.50;99.90;;;;;;5090980;28;20237;-72
2023/07/27 04:59:04;;;;;;;5.53;4.17;;;15.50;99.90;;;;;;5090967;28;20629;-72
2023/07/27 05:01:30;;;;;;;6.50;4.10;;;15.50;99.90;;;;;;5091124;28;20658;-72
2023/07/27 05:03:56;;;;;;;8.13;4.77;;;15.50;99.90;;;;;;5089639;28;20195;-72
2023/07/27 05:06:21;;;;;;;5.97;4.73;;;15.50;99.90;;;;;;5064557;28;20173;-72
2023/07/27 05:08:47;;;;;;;6.47;4.30;;;15.50;99.90;;;;;;5064799;28;20653;-72
2023/07/27 05:11:13;;;;;;;4.63;4.13;;;15.50;99.90;;;;;;5066626;28;20209;-72
2023/07/27 05:13:38;;;;;;;4.67;4.03;;;15.50;99.90;;;;;;5067825;28;20263;-72
2023/07/27 05:16:04;;;;;;;5.23;4.73;;;15.40;99.90;;;;;;5070200;28;20184;-72
2023/07/27 05:18:30;;;;;;;6.30;4.73;;;15.40;99.90;;;;;;5068048;28;20189;-72
2023/07/27 05:20:56;;;;;;;5.13;4.53;;;15.40;99.90;;;;;;5070285;28;20268;-72
2023/07/27 05:23:22;;;;;;;6.10;4.57;;;15.40;99.90;;;;;;5070258;28;20177;-72
2023/07/27 05:25:48;;;;;;;6.30;4.63;;;15.40;99.90;;;;;;5069701;28;20422;-72
2023/07/27 05:28:14;;;;;;;7.23;4.30;;;15.40;99.90;;;;;;5070365;28;20197;-72
2023/07/27 05:30:41;;;;;;;7.30;4.53;;;15.40;99.90;;;;;;5070121;28;20487;-72
2023/07/27 05:33:07;;;;;;;5.20;4.60;;;15.40;99.90;;;;;;5070717;28;20818;-73
2023/07/27 05:35:32;;;;;;;6.60;5.07;;;15.40;99.90;;;;;;5070074;28;20400;-72
2023/07/27 05:37:58;;;;;;;7.13;4.87;;;15.40;99.90;;;;;;5070373;28;20563;-72
2023/07/27 05:40:24;;;;;;;6.60;4.80;;;15.40;99.90;;;;;;5070512;28;20693;-72
2023/07/27 05:42:50;;;;;;;4.77;4.37;;;15.30;99.90;;;;;;5070052;28;20169;-72
2023/07/27 05:45:15;;;;;;;5.93;4.30;;;15.30;99.90;;;;;;5068648;28;20268;-72
2023/07/27 05:47:41;;;;;;;7.33;3.87;;;15.30;99.90;;;;;;5068979;28;20575;-71
2023/07/27 05:50:08;;;;;;;4.70;4.30;;;15.30;99.90;;;;;;5069879;28;20208;-72
2023/07/27 05:52:34;;;;;;;4.10;3.70;;;15.30;99.90;;;;;;5070284;28;20169;-72
2023/07/27 05:54:59;;;;;;;4.80;3.77;;;15.20;99.90;;;;;;5069297;28;20903;-72
2023/07/27 05:57:25;;;;;;;4.20;3.77;;;15.20;99.90;;;;;;5070379;28;20197;-71
2023/07/27 05:59:51;;;;;;;6.20;4.60;;;15.20;99.90;;;;;;5065664;28;20194;-71
2023/07/27 06:02:16;;;;;;;5.27;4.00;;;15.20;99.90;;;;;;5068368;28;20189;-71
2023/07/27 06:04:42;;;;;;;4.37;3.70;;;15.10;99.90;;;;;;5068935;28;20225;-72
2023/07/27 06:07:08;;;;;;;4.60;3.73;;;15.20;99.90;;;;;;5069381;28;20204;-71
2023/07/27 06:09:36;;;;;;;5.47;3.70;;;15.10;99.90;;;;;;5069827;28;20250;-71
2023/07/27 06:12:11;;;;;;;5.83;3.70;;;15.20;99.90;;;;;;5068957;28;20169;-71
2023/07/27 06:14:38;;;;;;;6.90;3.10;;;15.20;99.90;;;;;;5067079;28;20494;-72
2023/07/27 06:17:04;;;;;;;5.10;4.00;;;15.20;99.90;;;;;;5068399;28;20470;-71
2023/07/27 06:19:29;;;;;;;3.83;3.53;;;15.10;99.90;;;;;;5069852;28;20935;-72
2023/07/27 06:21:55;;;;;;;3.50;3.20;;;15.20;99.90;;;;;;5069342;28;20415;-71
2023/07/27 06:24:20;;;;;;;4.87;3.37;;;15.20;99.90;;;;;;5066464;28;20673;-71
2023/07/27 06:26:46;;;;;;;5.00;3.10;;;15.20;99.90;;;;;;5067352;28;20263;-71
2023/07/27 06:29:12;;;;;;;4.10;2.57;;;15.20;99.90;;;;;;5068519;28;20188;-71
2023/07/27 06:31:37;;;;;;;3.07;2.63;;;15.30;99.90;;;;;;5069013;28;20251;-71
2023/07/27 06:34:03;;;;;;;3.50;3.20;;;15.30;99.90;;;;;;5065856;28;20181;-71
2023/07/27 06:36:29;;;;;;;4.00;2.67;;;15.30;99.90;;;;;;5061822;28;20246;-71
2023/07/27 06:38:54;;;;;;;3.67;2.40;;;15.30;99.90;;;;;;5067482;28;20181;-71
2023/07/27 06:41:25;;;;;;;3.87;2.77;;;15.30;99.90;;;;;;5067965;28;20177;-71
2023/07/27 06:43:51;;;;;;;3.50;3.00;;;15.40;99.90;;;;;;5068208;28;20598;-71
2023/07/27 06:46:18;;;;;;;2.57;2.37;;;15.40;99.90;;;;;;5066367;28;20418;-71
2023/07/27 06:48:46;;;;;;;4.30;2.97;;;15.40;99.90;;;;;;5068907;28;20422;-71
2023/07/27 06:51:14;;;;;;;2.40;2.20;;;15.40;99.90;;;;;;5069003;28;20447;-71
2023/07/27 06:53:40;;;;;;;4.30;2.67;;;15.40;99.90;;;;;;5068677;28;20430;-71
2023/07/27 06:56:06;;;;;;;2.03;1.90;;;15.40;99.90;;;;;;5067540;28;20411;-71
2023/07/27 06:58:32;;;;;;;2.20;2.07;;;15.40;99.90;;;;;;5066817;28;20280;-71
2023/07/27 07:00:58;;;;;;;4.10;2.23;;;15.50;99.90;;;;;;5068299;28;20215;-71
2023/07/27 07:03:24;;;;;;;2.50;2.30;;;15.50;99.90;;;;;;5068120;28;20430;-70
2023/07/27 07:05:50;;;;;;;1.90;1.80;;;15.60;99.90;;;;;;5067358;28;20431;-71
2023/07/27 07:08:16;;;;;;;1.80;1.70;;;15.60;99.90;;;;;;5068146;28;20431;-71
2023/07/27 07:10:41;;;;;;;2.13;1.93;;;15.60;99.90;;;;;;5068269;28;20845;-71
2023/07/27 07:13:07;;;;;;;2.10;1.90;;;15.60;99.90;;;;;;5068419;28;20264;-71
2023/07/27 07:15:33;;;;;;;2.10;1.90;;;15.60;99.90;;;;;;5067193;28;20177;-71
2023/07/27 07:17:58;;;;;;;1.90;1.80;;;15.70;99.90;;;;;;5068307;28;20207;-71
2023/07/27 07:20:24;;;;;;;2.50;2.30;;;15.70;99.90;;;;;;5066876;28;20196;-71
2023/07/27 07:22:50;;;;;;;2.00;1.90;;;15.70;99.90;;;;;;5068085;28;20260;-71
2023/07/27 07:25:16;;;;;;;1.93;1.83;;;15.80;99.90;;;;;;5067473;28;20238;-71
2023/07/27 07:27:42;;;;;;;2.20;2.00;;;15.80;99.90;;;;;;5067293;28;20692;-71
2023/07/27 07:30:08;;;;;;;2.10;1.80;;;15.70;99.90;;;;;;5067830;28;20454;-71
2023/07/27 07:32:34;;;;;;;2.30;1.77;;;15.80;99.90;;;;;;5068071;28;20439;-71
2023/07/27 07:35:01;;;;;;;1.77;1.50;;;15.80;99.90;;;;;;5067070;28;20407;-71
2023/07/27 07:37:26;;;;;;;2.30;2.10;;;15.80;99.90;;;;;;5068010;28;20481;-71
2023/07/27 07:39:52;;;;;;;1.87;1.73;;;15.80;99.90;;;;;;5068059;28;20447;-71
2023/07/27 07:42:18;;;;;;;1.70;1.60;;;15.90;99.90;;;;;;5067652;28;20207;-72
2023/07/27 07:44:43;;;;;;;2.60;1.80;;;15.90;99.90;;;;;;5067443;28;20264;-71
2023/07/27 07:47:09;;;;;;;2.00;1.60;;;15.90;99.90;;;;;;5067842;28;20211;-71
2023/07/27 07:49:35;;;;;;;2.33;1.70;;;16.00;99.90;;;;;;5067910;28;20608;-71
2023/07/27 07:52:01;;;;;;;1.57;1.47;;;16.00;99.90;;;;;;5067721;28;20192;-71
2023/07/27 07:54:30;;;;;;;2.10;1.60;;;16.00;99.90;;;;;;5067496;28;20776;-72
2023/07/27 07:56:56;;;;;;;2.70;1.53;;;16.00;99.90;;;;;;5067168;28;20291;-71
2023/07/27 07:59:22;;;;;;;1.40;1.30;;;16.00;99.90;;;;;;5067396;28;20430;-71
2023/07/27 08:01:48;;;;;;;1.87;1.67;;;16.00;99.90;;;;;;5067423;28;20411;-71
2023/07/27 08:04:13;;;;;;;1.50;1.40;;;15.90;99.90;;;;;;5067417;28;20435;-71
2023/07/27 08:06:39;;;;;;;1.80;1.63;;;16.00;99.90;;;;;;5067071;28;20200;-71
2023/07/27 08:09:06;;;;;;;1.70;1.60;;;16.00;99.90;;;;;;5067806;28;20188;-71
2023/07/27 08:11:32;;;;;;;2.77;1.90;;;16.00;99.90;;;;;;5067723;28;20173;-71
2023/07/27 08:14:02;;;;;;;3.43;1.70;;;16.00;99.90;;;;;;5067037;28;20798;-71
2023/07/27 08:16:31;;;;;;;1.70;1.60;;;16.10;99.90;;;;;;5067432;28;20783;-71
2023/07/27 08:18:56;;;;;;;1.73;1.63;;;16.10;99.90;;;;;;5068274;28;20934;-71
2023/07/27 08:21:22;;;;;;;2.27;1.67;;;16.10;99.90;;;;;;5067925;28;20423;-71
2023/07/27 08:23:48;;;;;;;1.90;1.80;;;16.10;99.90;;;;;;5067167;28;20208;-71
2023/07/27 08:26:14;;;;;;;1.87;1.77;;;16.00;99.90;;;;;;5067262;28;20764;-71
2023/07/27 08:28:41;;;;;;;2.00;1.90;;;16.10;99.90;;;;;;5066041;28;20557;-71
2023/07/27 08:31:07;;;;;;;1.90;1.80;;;16.10;99.90;;;;;;5067534;28;20545;-71
2023/07/27 08:33:33;;;;;;;2.07;1.87;;;16.10;99.90;;;;;;5067469;28;20783;-71
2023/07/27 08:36:03;;;;;;;2.10;1.90;;;16.20;99.90;;;;;;5067022;28;21278;-71
2023/07/27 08:38:29;;;;;;;1.70;1.60;;;16.20;99.90;;;;;;5067397;28;20435;-71
2023/07/27 08:41:00;;;;;;;1.80;1.70;;;16.20;99.90;;;;;;5067364;28;20748;-71
2023/07/27 08:43:27;;;;;;;1.73;1.63;;;16.20;99.90;;;;;;5067423;28;20947;-71
2023/07/27 08:45:54;;;;;;;1.60;1.50;;;16.30;99.90;;;;;;5066680;28;20403;-71
2023/07/27 08:48:22;;;;;;;1.80;1.70;;;16.30;99.90;;;;;;5067195;28;20443;-71
2023/07/27 08:50:48;;;;;;;1.70;1.60;;;16.30;99.90;;;;;;5066442;28;20443;-71
2023/07/27 08:53:15;;;;;;;1.57;1.47;;;16.30;99.90;;;;;;5067200;28;20411;-71
2023/07/27 08:55:41;;;;;;;1.60;1.50;;;16.30;99.90;;;;;;5067047;28;20411;-71
2023/07/27 08:58:08;;;;;;;1.40;1.30;;;16.40;99.90;;;;;;5066914;28;20506;-71
2023/07/27 09:00:34;;;;;;;3.60;1.70;;;16.40;99.90;;;;;;5067667;28;20180;-71
2023/07/27 09:03:00;;;;;;;1.50;1.40;;;16.40;99.90;;;;;;5066845;28;20939;-71
2023/07/27 09:05:43;;;;;;;1.53;1.43;;;16.50;99.90;;;;;;5066690;28;20419;-71
2023/07/27 09:08:13;;;;;;;1.50;1.40;;;16.50;99.90;;;;;;5066926;28;21122;-71
2023/07/27 09:10:41;;;;;;;1.70;1.60;;;16.50;99.90;;;;;;5067230;28;20940;-71
2023/07/27 09:13:07;;;;;;;1.20;1.10;;;16.50;99.90;;;;;;5066997;28;20450;-71
2023/07/27 09:15:35;;;;;;;1.23;1.13;;;16.50;99.90;;;;;;5066595;28;20403;-71
2023/07/27 09:18:07;;;;;;;1.63;1.53;;;16.50;99.90;;;;;;5066941;28;20522;-71
2023/07/27 09:20:34;;;;;;;1.50;1.40;;;16.60;99.90;;;;;;5070468;28;21180;-71
2023/07/27 09:23:00;;;;;;;1.53;1.13;;;16.60;99.90;;;;;;5070509;28;20411;-71
2023/07/27 09:25:26;;;;;;;1.53;1.43;;;16.60;99.90;;;;;;5070211;28;20403;-71
2023/07/27 09:27:54;;;;;;;1.50;1.40;;;16.60;99.90;;;;;;5070340;28;20193;-71
2023/07/27 09:30:22;;;;;;;1.60;1.50;;;16.60;99.90;;;;;;5070344;28;20455;-71
2023/07/27 09:32:48;;;;;;;1.27;1.17;;;16.60;99.90;;;;;;5070589;28;20441;-71
2023/07/27 09:35:15;;;;;;;1.33;1.20;;;16.60;99.90;;;;;;5069698;28;20503;-71
2023/07/27 09:37:46;;;;;;;1.60;1.40;;;16.60;99.90;;;;;;5070569;28;20794;-71
2023/07/27 09:40:14;;;;;;;1.10;1.00;;;16.60;99.90;;;;;;5070321;28;20421;-72
2023/07/27 09:42:42;;;;;;;1.30;1.20;;;16.60;99.90;;;;;;5070519;28;20912;-72
2023/07/27 09:45:08;;;;;;;1.40;1.30;;;16.60;99.90;;;;;;5069660;28;20407;-71
2023/07/27 09:47:34;;;;;;;1.20;1.10;;;16.60;99.90;;;;;;5070314;28;20427;-72
2023/07/27 09:50:01;;;;;;;1.27;1.17;;;16.60;99.90;;;;;;5069858;28;20451;-72
2023/07/27 09:52:31;;;;;;;2.20;1.00;;;16.70;99.90;;;;;;5069983;28;20403;-71
2023/07/27 09:54:58;;;;;;;1.27;1.17;;;16.70;99.90;;;;;;5069262;28;20988;-71
2023/07/27 09:57:24;;;;;;;0.97;0.97;;;16.70;99.90;;;;;;5068765;28;20435;-71
2023/07/27 09:59:51;;;;;;;1.33;1.23;;;16.80;99.90;;;;;;5068923;28;20417;-71
2023/07/27 10:02:17;;;;;;;1.00;1.00;;;16.70;99.90;;;;;;5069782;28;20825;-71
2023/07/27 10:04:49;;;;;;;1.40;1.30;;;16.80;99.90;;;;;;5069329;28;20480;-72
2023/07/27 10:07:20;;;;;;;1.30;1.20;;;16.80;99.90;;;;;;5069686;28;20431;-71
2023/07/27 10:10:26;;;;;;;1.03;1.00;;;16.90;99.90;;;;;;5070157;28;21059;-72
2023/07/27 10:12:54;;;;;;;1.03;1.03;;;16.80;99.90;;;;;;5069712;28;20918;-71
2023/07/27 10:15:23;;;;;;;1.27;1.17;;;16.90;99.90;;;;;;5068962;28;20411;-71
2023/07/27 10:17:51;;;;;;;1.20;1.10;;;16.90;99.90;;;;;;5068262;28;20431;-71
2023/07/27 10:20:23;;;;;;;1.27;1.17;;;17.00;99.90;;;;;;5068218;28;20828;-71
2023/07/27 10:23:07;;;;;;;1.43;1.13;;;17.00;99.90;;;;;;5069687;28;20411;-71
2023/07/27 10:25:58;;;;;;;1.40;1.30;;;17.10;99.90;;;;;;5069025;28;20415;-72
2023/07/27 10:28:38;;;;;;;1.67;1.00;;;17.10;99.90;;;;;;5068873;28;20432;-72
2023/07/27 10:31:20;;;;;;;1.70;0.87;;;17.10;99.90;;;;;;5048059;28;20460;-71
2023/07/27 10:34:07;;;;;;;1.33;1.10;;;17.10;99.90;;;;;;5047470;28;20917;-71
2023/07/27 10:37:02;;;;;;;0.83;0.83;;;17.20;99.90;;;;;;5049658;28;20448;-71
2023/07/27 10:39:34;;;;;;;1.13;1.03;;;17.20;99.90;;;;;;5062615;28;20431;-71
2023/07/27 10:42:09;;;;;;;1.27;1.10;;;17.20;99.90;;;;;;5066332;28;20419;-72
2023/07/27 10:44:54;;;;;;;1.30;1.20;;;17.30;99.90;;;;;;5063256;28;20427;-71
2023/07/27 10:47:23;;;;;;;0.87;0.80;;;17.30;99.90;;;;;;5066467;28;20964;-71
2023/07/27 10:49:53;;;;;;;1.77;1.20;;;17.30;99.90;;;;;;5057119;28;20456;-71
2023/07/27 10:52:21;;;;;;;1.87;1.10;;;17.30;99.90;;;;;;5063911;28;20443;-71
2023/07/27 10:54:48;;;;;;;1.80;1.10;;;17.30;99.90;;;;;;5065163;28;20423;-72
2023/07/27 10:57:15;;;;;;;1.13;1.03;;;17.30;99.90;;;;;;5063249;28;20435;-71
2023/07/27 10:59:47;;;;;;;3.27;1.20;;;17.30;99.90;;;;;;5059423;28;20426;-72
2023/07/27 11:02:15;;;;;;;1.40;1.30;;;17.30;99.90;;;;;;5062960;28;20455;-72
2023/07/27 11:04:41;;;;;;;3.17;1.30;;;17.40;99.90;;;;;;5064254;28;20443;-71
2023/07/27 11:07:10;;;;;;;2.13;2.00;;;17.40;99.90;;;;;;5060176;28;20458;-71
2023/07/27 11:09:37;;;;;;;2.00;1.67;;;17.40;99.90;;;;;;5063388;28;21027;-72
2023/07/27 11:12:03;;;;;;;1.80;1.70;;;17.40;99.90;;;;;;5060865;28;21226;-71
2023/07/27 11:14:30;;;;;;;2.00;1.90;;;17.40;99.90;;;;;;5061591;28;20850;-72
2023/07/27 11:16:56;;;;;;;2.40;2.20;;;17.40;99.90;;;;;;5064126;28;20932;-71
2023/07/27 11:19:24;;;;;;;2.57;2.37;;;17.40;99.90;;;;;;5061010;28;20737;-71
2023/07/27 11:21:50;;;;;;;3.00;2.80;;;17.40;99.90;;;;;;5063644;28;20511;-71
2023/07/27 11:24:18;;;;;;;3.07;2.87;;;17.40;99.90;;;;;;5058696;28;20451;-71
2023/07/27 11:26:44;;;;;;;3.20;3.00;;;17.30;99.90;;;;;;5062548;28;20476;-72
2023/07/27 11:29:10;;;;;;;3.37;3.10;;;17.40;99.90;;;;;;5068528;28;20415;-71
2023/07/27 11:31:36;;;;;;;3.20;3.00;;;17.40;99.90;;;;;;5064846;28;20418;-71
2023/07/27 11:34:03;;;;;;;4.47;4.10;;;17.50;99.90;;;;;;5063180;28;20188;-71
2023/07/27 11:36:31;;;;;;;4.67;4.27;;;17.50;99.90;;;;;;5062812;28;20231;-71
2023/07/27 11:38:58;;;;;;;5.47;4.97;;;17.50;99.90;;;;;;5063742;28;21007;-71
2023/07/27 11:41:26;;;;;;;4.97;4.60;;;17.50;99.90;;;;;;5057844;28;20788;-71
2023/07/27 11:43:54;;;;;;;4.70;4.30;;;17.50;99.90;;;;;;5062686;28;20923;-71
2023/07/27 11:46:21;;;;;;;6.20;5.70;;;17.40;99.90;;;;;;5056257;28;20870;-71
2023/07/27 11:48:50;;;;;;;6.23;5.73;;;17.40;99.90;;;;;;5061746;28;20431;-71
2023/07/27 11:51:17;;;;;;;5.67;5.17;;;17.40;99.90;;;;;;5061999;28;20456;-71
2023/07/27 11:53:47;;;;;;;5.87;5.43;;;17.50;99.90;;;;;;5059780;28;20857;-71
2023/07/27 11:56:13;;;;;;;6.17;5.70;;;17.60;99.90;;;;;;5060110;28;20416;-72
2023/07/27 11:58:41;;;;;;;5.33;4.83;;;17.50;99.90;;;;;;5063920;28;20479;-71
2023/07/27 12:01:07;;;;;;;5.87;5.47;;;17.60;99.90;;;;;;5058571;28;20423;-70
2023/07/27 12:03:33;;;;;;;5.43;5.00;;;17.70;99.90;;;;;;5064289;28;20849;-70
2023/07/27 12:06:02;;;;;;;4.80;4.50;;;17.70;99.90;;;;;;5056602;28;20454;-70
2023/07/27 12:08:30;;;;;;;4.77;4.40;;;17.70;99.90;;;;;;5060831;28;20442;-70
2023/07/27 12:11:02;;;;;;;4.93;4.40;;;17.70;99.90;;;;;;5055492;28;20451;-71
2023/07/27 12:13:28;;;;;;;4.20;3.90;;;17.70;99.90;;;;;;5065181;28;20422;-70
2023/07/27 12:16:08;;;;;;;3.40;3.10;;;17.70;99.90;;;;;;5061144;28;21061;-70
2023/07/27 12:18:33;;;;;;;3.10;2.80;;;17.70;99.90;;;;;;5058632;28;20480;-70
2023/07/27 12:20:59;;;;;;;2.30;2.10;;;17.80;99.90;;;;;;5060259;28;20415;-70
2023/07/27 12:23:25;;;;;;;2.50;2.30;;;17.70;99.90;;;;;;5060949;28;20181;-70
2023/07/27 12:25:53;;;;;;;1.93;1.83;;;17.80;99.90;;;;;;5063357;28;20603;-70
2023/07/27 12:28:19;;;;;;;2.07;1.97;;;17.80;99.90;;;;;;5058373;28;20436;-71
2023/07/27 12:30:44;;;;;;;2.00;1.90;;;17.80;99.90;;;;;;5068793;28;20489;-71
2023/07/27 12:33:11;;;;;;;2.80;1.83;;;17.80;99.90;;;;;;5056510;28;20800;-71
2023/07/27 12:35:37;;;;;;;1.90;1.80;;;17.80;99.90;;;;;;5066303;28;20173;-71
2023/07/27 12:38:03;;;;;;;1.77;1.67;;;17.90;99.90;;;;;;5064081;28;20838;-71
2023/07/27 12:40:29;;;;;;;1.70;1.60;;;17.90;99.90;;;;;;5063194;28;20502;-71
2023/07/27 12:42:55;;;;;;;1.67;1.57;;;17.90;99.90;;;;;;5058398;28;20227;-71
2023/07/27 12:45:21;;;;;;;1.47;1.37;;;18.00;99.90;;;;;;5060860;28;20192;-71
2023/07/27 12:47:48;;;;;;;1.53;1.43;;;18.10;99.90;;;;;;5064240;28;20466;-71
2023/07/27 12:50:14;;;;;;;2.40;1.47;;;18.10;99.90;;;;;;5059577;28;20474;-71